createdAt,value
2018-12-19T00:00:33.631Z,0
2018-12-19T00:01:36.600Z,0
2018-12-19T00:02:39.051Z,0
2018-12-19T00:03:40.465Z,0
2018-12-19T00:04:46.206Z,0
2018-12-19T00:05:48.760Z,0
2018-12-19T00:06:50.181Z,0
2018-12-19T00:08:05.759Z,0
2018-12-19T00:09:07.157Z,0
2018-12-19T00:10:36.020Z,0
2018-12-19T00:11:37.453Z,0
2018-12-19T00:12:40.539Z,0
2018-12-19T00:14:06.011Z,0
2018-12-19T00:15:36.365Z,0
2018-12-19T00:16:40.888Z,0
2018-12-19T00:17:42.875Z,0
2018-12-19T00:18:44.295Z,0
2018-12-19T00:20:07.387Z,0
2018-12-19T00:21:08.901Z,0
2018-12-19T00:22:10.324Z,0
2018-12-19T00:23:35.419Z,0
2018-12-19T00:24:36.861Z,0
2018-12-19T00:25:39.652Z,0
2018-12-19T00:26:41.573Z,0
2018-12-19T00:27:44.954Z,0
2018-12-19T00:28:50.606Z,0
2018-12-19T00:29:53.825Z,0
2018-12-19T00:30:55.315Z,0
2018-12-19T00:31:56.775Z,0
2018-12-19T00:32:59.034Z,0
2018-12-19T00:34:00.441Z,0
2018-12-19T00:35:06.206Z,0
2018-12-19T00:36:12.253Z,0
2018-12-19T00:37:13.739Z,0
2018-12-19T00:38:16.389Z,0
2018-12-19T00:39:18.548Z,0
2018-12-19T00:40:20.013Z,0
2018-12-19T00:41:22.583Z,0
2018-12-19T00:42:25.797Z,0
2018-12-19T00:43:27.295Z,0
2018-12-19T00:44:32.679Z,0
2018-12-19T00:45:34.941Z,0
2018-12-19T00:46:37.076Z,0
2018-12-19T00:47:39.942Z,0
2018-12-19T00:48:41.380Z,0
2018-12-19T00:49:42.779Z,0
2018-12-19T00:50:46.485Z,0
2018-12-19T00:51:47.982Z,0
2018-12-19T00:52:49.381Z,0
2018-12-19T00:53:50.806Z,0
2018-12-19T00:54:52.185Z,0
2018-12-19T00:55:55.975Z,0
2018-12-19T00:56:57.460Z,0
2018-12-19T00:58:00.690Z,0
2018-12-19T00:59:03.775Z,0
2018-12-19T01:00:05.706Z,0
2018-12-19T01:01:09.269Z,0
2018-12-19T01:02:11.576Z,0
2018-12-19T01:03:13.561Z,0
2018-12-19T01:04:15.477Z,0
2018-12-19T01:05:18.150Z,0
2018-12-19T01:06:20.345Z,0
2018-12-19T01:07:22.321Z,0
2018-12-19T01:08:24.557Z,0
2018-12-19T01:09:26.009Z,0
2018-12-19T01:10:27.619Z,0
2018-12-19T01:11:29.784Z,0
2018-12-19T01:12:31.926Z,0
2018-12-19T01:13:33.338Z,0
2018-12-19T01:14:39.479Z,0
2018-12-19T01:15:41.378Z,0
2018-12-19T01:16:42.832Z,0
2018-12-19T01:17:44.239Z,0
2018-12-19T01:18:45.656Z,0
2018-12-19T01:19:51.757Z,0
2018-12-19T01:20:53.551Z,0
2018-12-19T01:21:55.733Z,0
2018-12-19T01:23:00.341Z,0
2018-12-19T01:24:02.421Z,0
2018-12-19T01:25:06.228Z,0
2018-12-19T01:26:07.661Z,0
2018-12-19T01:27:14.636Z,0
2018-12-19T01:28:16.041Z,0
2018-12-19T01:29:18.166Z,0
2018-12-19T01:30:22.790Z,0
2018-12-19T01:31:24.205Z,0
2018-12-19T01:32:27.546Z,0
2018-12-19T01:33:29.928Z,0
2018-12-19T01:34:36.547Z,0
2018-12-19T01:35:38.005Z,0
2018-12-19T01:37:01.700Z,0
2018-12-19T01:38:06.052Z,0
2018-12-19T01:39:08.677Z,0
2018-12-19T01:40:10.937Z,0
2018-12-19T01:41:12.320Z,0
2018-12-19T01:42:30.607Z,0
2018-12-19T01:43:32.223Z,0
2018-12-19T01:44:34.472Z,0
2018-12-19T01:45:36.758Z,0
2018-12-19T01:46:38.952Z,0
2018-12-19T01:47:46.911Z,0
2018-12-19T01:48:48.375Z,0
2018-12-19T01:49:49.746Z,0
2018-12-19T01:50:53.681Z,0
2018-12-19T01:51:55.137Z,0
2018-12-19T01:52:56.563Z,0
2018-12-19T01:54:00.142Z,0
2018-12-19T01:55:01.523Z,0
2018-12-19T01:56:04.625Z,0
2018-12-19T01:57:06.770Z,0
2018-12-19T01:58:12.024Z,0
2018-12-19T01:59:13.411Z,0
2018-12-19T02:00:14.832Z,0
2018-12-19T02:01:16.562Z,0
2018-12-19T02:02:20.857Z,0
2018-12-19T02:03:22.301Z,0
2018-12-19T02:04:23.692Z,0
2018-12-19T02:05:26.081Z,0
2018-12-19T02:06:28.428Z,0
2018-12-19T02:07:30.393Z,0
2018-12-19T02:08:32.793Z,0
2018-12-19T02:09:34.186Z,0
2018-12-19T02:10:35.847Z,0
2018-12-19T02:11:37.265Z,0
2018-12-19T02:12:38.688Z,0
2018-12-19T02:13:40.775Z,0
2018-12-19T02:14:43.281Z,0
2018-12-19T02:15:44.717Z,0
2018-12-19T02:16:46.137Z,0
2018-12-19T02:17:48.912Z,0
2018-12-19T02:18:50.306Z,0
2018-12-19T02:19:51.699Z,0
2018-12-19T02:20:53.987Z,0
2018-12-19T02:21:56.333Z,0
2018-12-19T02:22:57.761Z,0
2018-12-19T02:24:00.442Z,0
2018-12-19T02:25:01.844Z,0
2018-12-19T02:26:04.432Z,0
2018-12-19T02:27:09.127Z,0
2018-12-19T02:28:10.606Z,0
2018-12-19T02:29:11.968Z,0
2018-12-19T02:30:14.182Z,0
2018-12-19T02:31:15.628Z,0
2018-12-19T02:32:18.739Z,0
2018-12-19T02:33:36.907Z,0
2018-12-19T02:34:38.344Z,0
2018-12-19T02:35:39.826Z,0
2018-12-19T02:36:42.943Z,0
2018-12-19T02:37:45.383Z,0
2018-12-19T02:39:05.902Z,0
2018-12-19T02:40:07.283Z,0
2018-12-19T02:41:08.725Z,0
2018-12-19T02:42:17.703Z,0
2018-12-19T02:43:19.140Z,0
2018-12-19T02:44:20.518Z,0
2018-12-19T02:45:28.990Z,0
2018-12-19T02:46:30.383Z,0
2018-12-19T02:47:33.778Z,0
2018-12-19T02:48:36.462Z,0
2018-12-19T02:49:39.610Z,0
2018-12-19T02:50:41.021Z,0
2018-12-19T02:51:42.411Z,0
2018-12-19T02:52:53.238Z,0
2018-12-19T02:53:55.235Z,0
2018-12-19T02:54:56.660Z,0
2018-12-19T02:56:02.966Z,0
2018-12-19T02:57:04.397Z,0
2018-12-19T02:58:06.712Z,0
2018-12-19T02:59:12.205Z,0
2018-12-19T03:00:13.595Z,0
2018-12-19T03:01:16.157Z,0
2018-12-19T03:02:17.770Z,0
2018-12-19T03:03:25.775Z,0
2018-12-19T03:04:27.201Z,0
2018-12-19T03:05:28.613Z,0
2018-12-19T03:06:35.547Z,0
2018-12-19T03:07:36.963Z,0
2018-12-19T03:08:41.615Z,0
2018-12-19T03:09:43.957Z,0
2018-12-19T03:10:48.248Z,0
2018-12-19T03:11:51.645Z,0
2018-12-19T03:12:53.066Z,0
2018-12-19T03:13:54.475Z,0
2018-12-19T03:14:56.438Z,0
2018-12-19T03:16:00.645Z,0
2018-12-19T03:17:02.116Z,0
2018-12-19T03:18:05.346Z,0
2018-12-19T03:19:06.746Z,0
2018-12-19T03:20:11.002Z,0
2018-12-19T03:21:15.057Z,0
2018-12-19T03:22:19.878Z,0
2018-12-19T03:23:23.964Z,0
2018-12-19T03:24:26.770Z,0
2018-12-19T03:25:29.575Z,0
2018-12-19T03:26:31.000Z,0
2018-12-19T03:27:36.936Z,0
2018-12-19T03:28:42.147Z,0
2018-12-19T03:29:43.526Z,0
2018-12-19T03:30:44.932Z,0
2018-12-19T03:31:59.412Z,0
2018-12-19T03:33:02.543Z,0
2018-12-19T03:34:03.961Z,0
2018-12-19T03:35:09.677Z,0
2018-12-19T03:36:11.020Z,0
2018-12-19T03:37:17.560Z,0
2018-12-19T03:38:19.036Z,0
2018-12-19T03:39:20.445Z,0
2018-12-19T03:40:21.856Z,0
2018-12-19T03:41:23.283Z,0
2018-12-19T03:42:24.747Z,0
2018-12-19T03:43:26.147Z,0
2018-12-19T03:44:28.656Z,0
2018-12-19T03:45:31.334Z,0
2018-12-19T03:46:32.768Z,0
2018-12-19T03:47:35.312Z,0
2018-12-19T03:48:36.683Z,0
2018-12-19T03:49:39.016Z,0
2018-12-19T03:50:41.098Z,0
2018-12-19T03:51:43.128Z,0
2018-12-19T03:52:45.145Z,0
2018-12-19T03:53:47.475Z,0
2018-12-19T03:54:48.822Z,0
2018-12-19T03:55:50.221Z,0
2018-12-19T03:56:51.653Z,0
2018-12-19T03:57:53.054Z,0
2018-12-19T03:58:54.499Z,0
2018-12-19T03:59:56.752Z,0
2018-12-19T04:00:58.818Z,0
2018-12-19T04:02:00.945Z,0
2018-12-19T04:03:02.892Z,0
2018-12-19T04:04:04.730Z,0
2018-12-19T04:05:06.167Z,0
2018-12-19T04:06:07.720Z,0
2018-12-19T04:07:09.832Z,0
2018-12-19T04:08:11.239Z,0
2018-12-19T04:09:12.663Z,0
2018-12-19T04:10:14.073Z,0
2018-12-19T04:11:16.324Z,0
2018-12-19T04:12:18.263Z,0
2018-12-19T04:13:20.189Z,0
2018-12-19T04:14:21.613Z,0
2018-12-19T04:15:25.530Z,0
2018-12-19T04:16:28.053Z,0
2018-12-19T04:17:31.842Z,0
2018-12-19T04:18:42.179Z,0
2018-12-19T04:19:45.362Z,0
2018-12-19T04:20:47.260Z,0
2018-12-19T04:22:28.117Z,0
2018-12-19T04:23:29.469Z,0
2018-12-19T04:24:30.813Z,0
2018-12-19T04:25:32.154Z,0
2018-12-19T04:26:34.478Z,0
2018-12-19T04:27:35.830Z,0
2018-12-19T04:28:37.183Z,0
2018-12-19T04:29:38.548Z,0
2018-12-19T04:30:39.904Z,0
2018-12-19T04:31:41.255Z,0
2018-12-19T04:32:42.608Z,0
2018-12-19T04:33:43.970Z,0
2018-12-19T04:34:45.288Z,0
2018-12-19T04:35:46.659Z,0
2018-12-19T04:36:48.040Z,0
2018-12-19T04:37:49.395Z,0
2018-12-19T04:38:50.735Z,0
2018-12-19T04:39:52.099Z,0
2018-12-19T04:40:53.461Z,0
2018-12-19T04:41:54.823Z,0
2018-12-19T04:42:56.684Z,0
2018-12-19T04:43:58.035Z,0
2018-12-19T04:44:59.374Z,0
2018-12-19T04:46:00.751Z,0
2018-12-19T04:47:02.833Z,0
2018-12-19T04:48:04.180Z,0
2018-12-19T04:49:05.535Z,0
2018-12-19T04:50:06.891Z,0
2018-12-19T04:51:08.948Z,0
2018-12-19T04:52:10.329Z,0
2018-12-19T04:53:11.681Z,0
2018-12-19T04:54:13.079Z,0
2018-12-19T04:55:14.399Z,0
2018-12-19T04:56:15.739Z,0
2018-12-19T04:57:17.102Z,0
2018-12-19T04:58:18.452Z,0
2018-12-19T04:59:19.801Z,0
2018-12-19T05:00:21.150Z,0
2018-12-19T05:01:22.499Z,0
2018-12-19T05:02:23.858Z,0
2018-12-19T05:03:25.204Z,0
2018-12-19T05:04:26.573Z,0
2018-12-19T05:05:27.964Z,0
2018-12-19T05:06:29.317Z,0
2018-12-19T05:07:30.659Z,0
2018-12-19T05:08:31.996Z,0
2018-12-19T05:09:33.354Z,0
2018-12-19T05:10:34.752Z,0
2018-12-19T05:11:36.099Z,0
2018-12-19T05:12:38.299Z,0
2018-12-19T05:13:39.655Z,0
2018-12-19T05:14:41.543Z,0
2018-12-19T05:15:42.901Z,0
2018-12-19T05:16:44.279Z,0
2018-12-19T05:17:46.592Z,0
2018-12-19T05:18:48.522Z,0
2018-12-19T05:19:49.879Z,0
2018-12-19T05:20:51.234Z,0
2018-12-19T05:21:52.600Z,0
2018-12-19T05:22:53.960Z,0
2018-12-19T05:23:55.359Z,0
2018-12-19T05:24:56.855Z,0
2018-12-19T05:25:58.284Z,0
2018-12-19T05:26:59.736Z,0
2018-12-19T05:28:01.170Z,0
2018-12-19T05:29:02.555Z,0
2018-12-19T05:30:03.966Z,0
2018-12-19T05:31:05.455Z,0
2018-12-19T05:32:07.806Z,0
2018-12-19T05:33:09.210Z,0
2018-12-19T05:34:10.634Z,0
2018-12-19T05:35:11.997Z,0
2018-12-19T05:36:13.350Z,0
2018-12-19T05:37:14.734Z,0
2018-12-19T05:38:16.091Z,0
2018-12-19T05:39:17.521Z,0
2018-12-19T05:40:19.222Z,0
2018-12-19T05:41:20.327Z,0
2018-12-19T05:42:21.777Z,0
2018-12-19T05:43:23.807Z,0
2018-12-19T05:44:25.286Z,0
2018-12-19T05:45:26.769Z,0
2018-12-19T05:46:28.179Z,0
2018-12-19T05:47:29.691Z,0
2018-12-19T05:48:31.145Z,0
2018-12-19T05:49:32.630Z,0
2018-12-19T05:50:34.152Z,0
2018-12-19T05:51:35.627Z,0
2018-12-19T05:52:37.155Z,0
2018-12-19T05:53:38.729Z,0
2018-12-19T05:54:40.277Z,0
2018-12-19T05:55:41.755Z,0
2018-12-19T05:56:43.263Z,0
2018-12-19T05:57:44.740Z,0
2018-12-19T05:58:46.227Z,0
2018-12-19T05:59:47.693Z,0
2018-12-19T06:00:49.213Z,0
2018-12-19T06:01:50.665Z,0
2018-12-19T06:02:52.143Z,0
2018-12-19T06:03:53.606Z,0
2018-12-19T06:04:55.087Z,0
2018-12-19T06:05:58.005Z,0
2018-12-19T06:06:59.499Z,0
2018-12-19T06:08:01.737Z,0
2018-12-19T06:09:03.260Z,0
2018-12-19T06:10:04.751Z,0
2018-12-19T06:11:06.296Z,0
2018-12-19T06:12:08.515Z,0
2018-12-19T06:13:10.031Z,0
2018-12-19T06:14:11.517Z,0
2018-12-19T06:15:13.018Z,0
2018-12-19T06:16:14.556Z,0
2018-12-19T06:17:16.776Z,0
2018-12-19T06:18:18.832Z,0
2018-12-19T06:19:20.281Z,0
2018-12-19T06:20:21.757Z,0
2018-12-19T06:21:23.239Z,0
2018-12-19T06:22:24.772Z,0
2018-12-19T06:23:26.260Z,0
2018-12-19T06:24:28.500Z,0
2018-12-19T06:25:29.956Z,0
2018-12-19T06:26:31.468Z,0
2018-12-19T06:27:32.972Z,0
2018-12-19T06:28:34.441Z,0
2018-12-19T06:29:35.895Z,0
2018-12-19T06:30:37.395Z,0
2018-12-19T06:31:39.629Z,0
2018-12-19T06:32:41.180Z,0
2018-12-19T06:33:42.638Z,0
2018-12-19T06:34:44.245Z,0
2018-12-19T06:35:45.751Z,0
2018-12-19T06:36:47.362Z,0
2018-12-19T06:37:48.854Z,0
2018-12-19T06:38:50.436Z,0
2018-12-19T06:39:52.647Z,0
2018-12-19T06:40:54.128Z,0
2018-12-19T06:41:55.616Z,0
2018-12-19T06:42:57.140Z,0
2018-12-19T06:43:58.665Z,0
2018-12-19T06:45:00.174Z,0
2018-12-19T06:46:01.678Z,0
2018-12-19T06:47:03.971Z,0
2018-12-19T06:48:06.420Z,0
2018-12-19T06:49:08.869Z,0
2018-12-19T06:50:10.409Z,0
2018-12-19T06:51:12.403Z,0
2018-12-19T06:52:13.862Z,4
2018-12-19T06:53:15.565Z,4
2018-12-19T06:54:17.087Z,4
2018-12-19T06:55:18.647Z,4
2018-12-19T06:56:20.154Z,4
2018-12-19T06:57:21.610Z,4
2018-12-19T06:58:23.091Z,4
2018-12-19T06:59:25.188Z,8
2018-12-19T07:00:26.679Z,4
2018-12-19T07:01:28.136Z,8
2018-12-19T07:02:29.646Z,8
2018-12-19T07:03:31.842Z,12
2018-12-19T07:04:33.351Z,16
2018-12-19T07:05:34.856Z,16
2018-12-19T07:06:36.385Z,24
2018-12-19T07:07:37.856Z,28
2018-12-19T07:08:41.414Z,28
2018-12-19T07:09:40.752Z,28
2018-12-19T07:10:42.192Z,32
2018-12-19T07:11:43.696Z,32
2018-12-19T07:12:45.187Z,44
2018-12-19T07:13:47.346Z,52
2018-12-19T07:14:49.137Z,68
2018-12-19T07:15:50.604Z,80
2018-12-19T07:16:52.091Z,92
2018-12-19T07:17:53.597Z,92
2018-12-19T07:18:55.067Z,80
2018-12-19T07:19:56.544Z,68
2018-12-19T07:20:58.081Z,72
2018-12-19T07:21:59.543Z,80
2018-12-19T07:23:01.005Z,76
2018-12-19T07:24:02.490Z,76
2018-12-19T07:25:03.952Z,80
2018-12-19T07:26:05.394Z,80
2018-12-19T07:27:06.910Z,84
2018-12-19T07:28:08.395Z,84
2018-12-19T07:29:09.912Z,84
2018-12-19T07:30:11.400Z,92
2018-12-19T07:31:12.881Z,92
2018-12-19T07:32:14.340Z,88
2018-12-19T07:33:15.876Z,92
2018-12-19T07:34:17.367Z,100
2018-12-19T07:35:18.833Z,104
2018-12-19T07:36:21.071Z,120
2018-12-19T07:37:23.395Z,144
2018-12-19T07:38:25.847Z,180
2018-12-19T07:39:27.271Z,188
2018-12-19T07:40:29.593Z,184
2018-12-19T07:41:31.120Z,192
2018-12-19T07:42:32.637Z,212
2018-12-19T07:43:34.126Z,240
2018-12-19T07:44:35.592Z,252
2018-12-19T07:45:37.038Z,232
2018-12-19T07:46:38.523Z,208
2018-12-19T07:47:40.036Z,180
2018-12-19T07:48:41.512Z,188
2018-12-19T07:49:43.018Z,204
2018-12-19T07:50:44.593Z,208
2018-12-19T07:51:46.127Z,220
2018-12-19T07:52:47.601Z,240
2018-12-19T07:53:49.810Z,268
2018-12-19T07:54:51.307Z,304
2018-12-19T07:55:52.752Z,316
2018-12-19T07:56:54.263Z,324
2018-12-19T07:57:55.788Z,340
2018-12-19T07:58:57.208Z,364
2018-12-19T07:59:58.767Z,396
2018-12-19T08:01:00.212Z,412
2018-12-19T08:02:01.711Z,428
2018-12-19T08:03:03.214Z,480
2018-12-19T08:04:04.767Z,528
2018-12-19T08:05:06.236Z,576
2018-12-19T08:06:07.756Z,624
2018-12-19T08:07:09.277Z,668
2018-12-19T08:08:10.785Z,644
2018-12-19T08:09:12.301Z,616
2018-12-19T08:10:14.347Z,636
2018-12-19T08:11:17.499Z,672
2018-12-19T08:12:19.013Z,752
2018-12-19T08:13:21.231Z,816
2018-12-19T08:14:22.560Z,768
2018-12-19T08:15:24.044Z,652
2018-12-19T08:16:25.488Z,628
2018-12-19T08:17:26.953Z,636
2018-12-19T08:18:28.556Z,664
2018-12-19T08:19:30.063Z,664
2018-12-19T08:20:31.538Z,644
2018-12-19T08:21:33.028Z,652
2018-12-19T08:22:35.483Z,672
2018-12-19T08:23:36.968Z,744
2018-12-19T08:24:38.432Z,828
2018-12-19T08:25:39.949Z,896
2018-12-19T08:26:41.451Z,896
2018-12-19T08:27:42.887Z,812
2018-12-19T08:28:45.277Z,820
2018-12-19T08:29:46.738Z,924
2018-12-19T08:30:48.248Z,896
2018-12-19T08:31:49.738Z,896
2018-12-19T08:32:51.248Z,916
2018-12-19T08:33:52.752Z,936
2018-12-19T08:34:54.248Z,992
2018-12-19T08:35:55.811Z,956
2018-12-19T08:36:57.283Z,816
2018-12-19T08:37:58.781Z,868
2018-12-19T08:39:00.257Z,1068
2018-12-19T08:40:01.735Z,1216
2018-12-19T08:41:03.229Z,1460
2018-12-19T08:42:04.688Z,1664
2018-12-19T08:43:06.267Z,1716
2018-12-19T08:44:07.706Z,1636
2018-12-19T08:45:09.177Z,1540
2018-12-19T08:46:14.501Z,1540
2018-12-19T08:47:13.879Z,1480
2018-12-19T08:48:15.362Z,1332
2018-12-19T08:49:17.634Z,1340
2018-12-19T08:50:19.089Z,1464
2018-12-19T08:51:20.622Z,1592
2018-12-19T08:52:22.738Z,1836
2018-12-19T08:53:23.534Z,2140
2018-12-19T08:54:24.998Z,1972
2018-12-19T08:55:26.568Z,1972
2018-12-19T08:56:28.043Z,1856
2018-12-19T08:57:29.545Z,2160
2018-12-19T08:58:31.044Z,2260
2018-12-19T08:59:32.628Z,2264
2018-12-19T09:00:34.103Z,2212
2018-12-19T09:01:35.616Z,2320
2018-12-19T09:02:37.158Z,2184
2018-12-19T09:03:38.599Z,2148
2018-12-19T09:04:40.122Z,2152
2018-12-19T09:05:42.243Z,2472
2018-12-19T09:06:43.727Z,2528
2018-12-19T09:07:45.218Z,2608
2018-12-19T09:08:46.799Z,2732
2018-12-19T09:09:48.277Z,2592
2018-12-19T09:10:49.800Z,2392
2018-12-19T09:11:51.355Z,2444
2018-12-19T09:12:52.803Z,2600
2018-12-19T09:13:55.034Z,2896
2018-12-19T09:14:56.543Z,3184
2018-12-19T09:15:58.066Z,3300
2018-12-19T09:16:59.554Z,3408
2018-12-19T09:18:00.997Z,3484
2018-12-19T09:19:02.598Z,3508
2018-12-19T09:20:04.083Z,3280
2018-12-19T09:21:05.680Z,2876
2018-12-19T09:22:07.153Z,2628
2018-12-19T09:23:08.688Z,2544
2018-12-19T09:24:10.155Z,2204
2018-12-19T09:25:12.502Z,2276
2018-12-19T09:26:15.248Z,2628
2018-12-19T09:27:16.990Z,2696
2018-12-19T09:28:19.493Z,2820
2018-12-19T09:29:20.994Z,3148
2018-12-19T09:30:22.509Z,3200
2018-12-19T09:31:24.062Z,3400
2018-12-19T09:32:25.623Z,3628
2018-12-19T09:33:27.526Z,3828
2018-12-19T09:34:28.564Z,3444
2018-12-19T09:35:30.025Z,3120
2018-12-19T09:36:31.546Z,3288
2018-12-19T09:37:33.035Z,3672
2018-12-19T09:38:34.510Z,3832
2018-12-19T09:39:36.054Z,3780
2018-12-19T09:40:37.584Z,3760
2018-12-19T09:41:39.078Z,3700
2018-12-19T09:42:40.590Z,3300
2018-12-19T09:43:42.140Z,3216
2018-12-19T09:44:44.043Z,3048
2018-12-19T09:45:47.694Z,2832
2018-12-19T09:46:49.207Z,2640
2018-12-19T09:47:51.666Z,2376
2018-12-19T09:48:53.177Z,2572
2018-12-19T09:49:54.743Z,2920
2018-12-19T09:50:56.308Z,3088
2018-12-19T09:51:58.037Z,3196
2018-12-19T09:52:59.603Z,2896
2018-12-19T09:54:01.171Z,2648
2018-12-19T09:55:02.743Z,2708
2018-12-19T09:56:04.232Z,3588
2018-12-19T09:57:05.704Z,4112
2018-12-19T09:58:07.194Z,4232
2018-12-19T09:59:08.668Z,3584
2018-12-19T10:00:10.991Z,2712
2018-12-19T10:01:12.493Z,2376
2018-12-19T10:02:13.963Z,2664
2018-12-19T10:03:15.673Z,2696
2018-12-19T10:04:17.265Z,2584
2018-12-19T10:05:18.802Z,2604
2018-12-19T10:06:21.133Z,2536
2018-12-19T10:07:22.666Z,2460
2018-12-19T10:08:24.238Z,2232
2018-12-19T10:09:25.743Z,2004
2018-12-19T10:10:28.163Z,1912
2018-12-19T10:11:29.650Z,1848
2018-12-19T10:12:33.757Z,1916
2018-12-19T10:13:35.049Z,1824
2018-12-19T10:14:36.554Z,1628
2018-12-19T10:15:38.039Z,1696
2018-12-19T10:16:39.552Z,2140
2018-12-19T10:17:41.589Z,2328
2018-12-19T10:18:43.092Z,2420
2018-12-19T10:19:44.603Z,2632
2018-12-19T10:20:46.138Z,2944
2018-12-19T10:21:48.496Z,3404
2018-12-19T10:22:49.929Z,3624
2018-12-19T10:23:51.403Z,3920
2018-12-19T10:24:52.889Z,4152
2018-12-19T10:25:54.362Z,4192
2018-12-19T10:26:55.809Z,3940
2018-12-19T10:27:58.008Z,3720
2018-12-19T10:28:59.514Z,3708
2018-12-19T10:30:00.986Z,3760
2018-12-19T10:31:02.507Z,3796
2018-12-19T10:32:04.011Z,3636
2018-12-19T10:33:05.565Z,3252
2018-12-19T10:34:07.765Z,2900
2018-12-19T10:35:08.587Z,3004
2018-12-19T10:36:10.135Z,3284
2018-12-19T10:37:11.569Z,3800
2018-12-19T10:38:14.028Z,3724
2018-12-19T10:39:15.544Z,3616
2018-12-19T10:40:17.737Z,3400
2018-12-19T10:41:25.320Z,3452
2018-12-19T10:42:21.569Z,3464
2018-12-19T10:43:23.028Z,3220
2018-12-19T10:44:24.521Z,3020
2018-12-19T10:45:25.995Z,2828
2018-12-19T10:46:27.529Z,2744
2018-12-19T10:47:29.005Z,2736
2018-12-19T10:48:30.489Z,2904
2018-12-19T10:49:31.981Z,3244
2018-12-19T10:50:33.437Z,3684
2018-12-19T10:51:34.922Z,3672
2018-12-19T10:52:36.445Z,3620
2018-12-19T10:53:37.934Z,3692
2018-12-19T10:54:39.429Z,3696
2018-12-19T10:55:40.946Z,3772
2018-12-19T10:56:42.442Z,3868
2018-12-19T10:57:44.763Z,3868
2018-12-19T10:58:47.105Z,4000
2018-12-19T10:59:49.480Z,4196
2018-12-19T11:00:50.970Z,4160
2018-12-19T11:01:52.444Z,4200
2018-12-19T11:02:55.564Z,4160
2018-12-19T11:03:57.059Z,4028
2018-12-19T11:04:59.503Z,3972
2018-12-19T11:06:01.783Z,3884
2018-12-19T11:07:03.220Z,3832
2018-12-19T11:08:04.705Z,4096
2018-12-19T11:09:06.195Z,4384
2018-12-19T11:10:07.679Z,4296
2018-12-19T11:11:10.026Z,4084
2018-12-19T11:12:11.496Z,3792
2018-12-19T11:13:13.046Z,3588
2018-12-19T11:14:14.514Z,3628
2018-12-19T11:15:16.030Z,3788
2018-12-19T11:16:17.514Z,4024
2018-12-19T11:17:18.953Z,4188
2018-12-19T11:18:20.436Z,4148
2018-12-19T11:19:21.918Z,4032
2018-12-19T11:20:23.376Z,4048
2018-12-19T11:21:24.864Z,4024
2018-12-19T11:22:26.349Z,3940
2018-12-19T11:23:27.856Z,3680
2018-12-19T11:24:29.340Z,3564
2018-12-19T11:25:31.313Z,3604
2018-12-19T11:26:32.839Z,3772
2018-12-19T11:27:34.386Z,4028
2018-12-19T11:29:17.095Z,3700
2018-12-19T11:30:19.260Z,3528
2018-12-19T11:31:20.658Z,3540
2018-12-19T11:32:22.469Z,3588
2018-12-19T11:33:23.839Z,3712
2018-12-19T11:34:25.256Z,4012
2018-12-19T11:35:27.410Z,4456
2018-12-19T11:36:29.020Z,4692
2018-12-19T11:37:30.480Z,4748
2018-12-19T11:38:31.990Z,5172
2018-12-19T11:39:33.500Z,6312
2018-12-19T11:40:34.944Z,7344
2018-12-19T11:41:38.962Z,7444
2018-12-19T11:42:37.819Z,7124
2018-12-19T11:43:39.214Z,6660
2018-12-19T11:44:40.646Z,5628
2018-12-19T11:45:42.070Z,4600
2018-12-19T11:46:45.195Z,4440
2018-12-19T11:47:46.679Z,4392
2018-12-19T11:48:48.204Z,4364
2018-12-19T11:49:50.345Z,4252
2018-12-19T11:50:52.256Z,4320
2018-12-19T11:51:53.679Z,4316
2018-12-19T11:52:55.759Z,3968
2018-12-19T11:53:57.142Z,3588
2018-12-19T11:54:58.550Z,3384
2018-12-19T11:55:59.944Z,3296
2018-12-19T11:57:01.322Z,3272
2018-12-19T11:58:02.751Z,3272
2018-12-19T11:59:04.136Z,3128
2018-12-19T12:00:07.420Z,2912
2018-12-19T12:01:08.879Z,2856
2018-12-19T12:02:10.331Z,3108
2018-12-19T12:03:11.706Z,3388
2018-12-19T12:04:13.119Z,3688
2018-12-19T12:05:14.565Z,4476
2018-12-19T12:06:16.047Z,5232
2018-12-19T12:07:17.490Z,5704
2018-12-19T12:08:18.990Z,5996
2018-12-19T12:09:20.520Z,6100
2018-12-19T12:10:22.052Z,5712
2018-12-19T12:11:23.445Z,4948
2018-12-19T12:12:25.755Z,4352
2018-12-19T12:13:27.148Z,4388
2018-12-19T12:14:28.536Z,4912
2018-12-19T12:15:29.935Z,4976
2018-12-19T12:16:31.519Z,4208
2018-12-19T12:17:32.976Z,3604
2018-12-19T12:18:35.794Z,3308
2018-12-19T12:19:37.235Z,3124
2018-12-19T12:20:38.729Z,3020
2018-12-19T12:21:40.136Z,2944
2018-12-19T12:22:42.160Z,2768
2018-12-19T12:23:47.306Z,2900
2018-12-19T12:24:45.047Z,2948
2018-12-19T12:25:47.152Z,2912
2018-12-19T12:26:48.568Z,2956
2018-12-19T12:27:50.113Z,2812
2018-12-19T12:28:51.751Z,2600
2018-12-19T12:29:54.161Z,2268
2018-12-19T12:30:55.553Z,1988
2018-12-19T12:31:56.989Z,1864
2018-12-19T12:32:58.371Z,1868
2018-12-19T12:33:59.795Z,1964
2018-12-19T12:35:01.187Z,2072
2018-12-19T12:36:02.584Z,2264
2018-12-19T12:37:04.095Z,2468
2018-12-19T12:38:05.613Z,2588
2018-12-19T12:39:08.045Z,2676
2018-12-19T12:40:09.580Z,2728
2018-12-19T12:41:11.040Z,2724
2018-12-19T12:42:12.451Z,2776
2018-12-19T12:43:13.895Z,3088
2018-12-19T12:44:15.290Z,3460
2018-12-19T12:45:18.276Z,3540
2018-12-19T12:46:19.702Z,3492
2018-12-19T12:47:21.773Z,3396
2018-12-19T12:48:23.201Z,3160
2018-12-19T12:49:24.639Z,2872
2018-12-19T12:50:26.081Z,2500
2018-12-19T12:51:27.686Z,2136
2018-12-19T12:52:29.306Z,1860
2018-12-19T12:53:30.878Z,1656
2018-12-19T12:54:32.358Z,1516
2018-12-19T12:55:33.992Z,1428
2018-12-19T12:56:35.889Z,1416
2018-12-19T12:57:38.074Z,1396
2018-12-19T12:58:40.197Z,1328
2018-12-19T12:59:41.725Z,1244
2018-12-19T13:00:43.258Z,1188
2018-12-19T13:01:44.764Z,1216
2018-12-19T13:02:46.272Z,1288
2018-12-19T13:03:48.552Z,1332
2018-12-19T13:04:51.319Z,1356
2018-12-19T13:05:51.478Z,1424
2018-12-19T13:06:53.046Z,1596
2018-12-19T13:07:55.601Z,1872
2018-12-19T13:08:57.347Z,2172
2018-12-19T13:09:58.811Z,2476
2018-12-19T13:11:00.353Z,2820
2018-12-19T13:12:01.830Z,3148
2018-12-19T13:13:04.092Z,3132
2018-12-19T13:14:04.981Z,2876
2018-12-19T13:15:06.506Z,2768
2018-12-19T13:16:07.981Z,2848
2018-12-19T13:17:09.539Z,2920
2018-12-19T13:18:11.032Z,2892
2018-12-19T13:19:12.468Z,2752
2018-12-19T13:20:14.000Z,2592
2018-12-19T13:21:16.427Z,2472
2018-12-19T13:22:17.906Z,2432
2018-12-19T13:23:19.337Z,2436
2018-12-19T13:24:20.736Z,2448
2018-12-19T13:25:22.273Z,2452
2018-12-19T13:26:23.697Z,2476
2018-12-19T13:27:25.101Z,2572
2018-12-19T13:28:26.462Z,2768
2018-12-19T13:29:27.835Z,2976
2018-12-19T13:30:29.210Z,3068
2018-12-19T13:31:30.646Z,2988
2018-12-19T13:32:32.064Z,2780
2018-12-19T13:33:34.188Z,2588
2018-12-19T13:34:35.666Z,2468
2018-12-19T13:35:37.156Z,2392
2018-12-19T13:36:38.618Z,2452
2018-12-19T13:37:40.376Z,2480
2018-12-19T13:38:42.143Z,2480
2018-12-19T13:39:43.889Z,2572
2018-12-19T13:40:45.402Z,2680
2018-12-19T13:41:46.878Z,2628
2018-12-19T13:42:48.289Z,2520
2018-12-19T13:43:49.732Z,2472
2018-12-19T13:44:51.294Z,2668
2018-12-19T13:45:53.050Z,2984
2018-12-19T13:46:54.846Z,3144
2018-12-19T13:47:56.516Z,3024
2018-12-19T13:48:58.059Z,2796
2018-12-19T13:49:59.656Z,2716
2018-12-19T13:51:02.065Z,2820
2018-12-19T13:52:03.623Z,2988
2018-12-19T13:53:05.538Z,3028
2018-12-19T13:54:08.329Z,2964
2018-12-19T13:55:08.971Z,2940
2018-12-19T13:56:10.761Z,2996
2018-12-19T13:57:12.435Z,3020
2018-12-19T13:58:14.037Z,2952
2018-12-19T13:59:15.713Z,2868
2018-12-19T14:00:17.164Z,2812
2018-12-19T14:01:18.577Z,2720
2018-12-19T14:02:19.986Z,2520
2018-12-19T14:03:22.198Z,2188
2018-12-19T14:04:23.823Z,1888
2018-12-19T14:05:25.322Z,1736
2018-12-19T14:06:27.754Z,1784
2018-12-19T14:07:29.277Z,1916
2018-12-19T14:08:30.796Z,2004
2018-12-19T14:09:32.292Z,2124
2018-12-19T14:10:33.812Z,2416
2018-12-19T14:11:35.489Z,2904
2018-12-19T14:12:38.332Z,3256
2018-12-19T14:13:38.554Z,3444
2018-12-19T14:14:40.047Z,3536
2018-12-19T14:15:41.598Z,3556
2018-12-19T14:16:43.128Z,3520
2018-12-19T14:17:44.598Z,3388
2018-12-19T14:18:46.102Z,3180
2018-12-19T14:19:47.839Z,3024
2018-12-19T14:20:49.394Z,2928
2018-12-19T14:21:50.957Z,2868
2018-12-19T14:22:52.397Z,2856
2018-12-19T14:23:54.143Z,2836
2018-12-19T14:24:55.873Z,2716
2018-12-19T14:25:57.730Z,2432
2018-12-19T14:26:59.417Z,2068
2018-12-19T14:28:01.758Z,1744
2018-12-19T14:29:03.394Z,1504
2018-12-19T14:30:05.543Z,1372
2018-12-19T14:31:07.092Z,1324
2018-12-19T14:32:08.568Z,1340
2018-12-19T14:33:10.007Z,1352
2018-12-19T14:34:13.132Z,1296